Time;durP1;ratioP1;P1;durP2;ratioP2;P2;SDS_P1;SDS_P2;PMS_P1;PMS_P2;Temp;Humidity;BMP_temperature;BMP_pressure;BME280_temperature;BME280_humidity;BME280_pressure;Samples;Min_cycle;Max_cycle;Signal;HPM_P1;HPM_P2
2021/12/24 00:01:22;;;;;;;43.13;24.55;;;10.80;99.90;;;10.98;100.00;100315.63;5094036;28;20139;-68
2021/12/24 00:03:53;;;;;;;38.85;22.55;;;10.80;99.90;;;11.02;100.00;100325.28;5093806;28;20100;-69
2021/12/24 00:06:21;;;;;;;37.15;22.08;;;10.80;99.90;;;11.09;100.00;100321.63;5111767;28;20453;-69
2021/12/24 00:08:50;;;;;;;39.08;22.17;;;10.80;99.90;;;11.13;100.00;100307.47;5111406;28;20047;-69
2021/12/24 00:11:19;;;;;;;35.15;21.73;;;10.90;99.90;;;11.21;100.00;100316.16;5111687;28;20127;-69
2021/12/24 00:13:49;;;;;;;37.53;23.10;;;11.00;99.90;;;11.08;100.00;100301.38;5111498;28;20483;-69
2021/12/24 00:16:23;;;;;;;39.58;22.75;;;10.90;99.90;;;11.24;100.00;100307.28;5111662;28;20052;-68
2021/12/24 00:18:59;;;;;;;42.30;22.88;;;11.00;99.90;;;11.12;100.00;100283.66;5111327;28;20040;-68
2021/12/24 00:35:29;;;;;;;37.15;20.50;;;11.20;99.90;;;11.45;100.00;100321.06;5114755;28;20092;-68
2021/12/24 00:38:01;;;;;;;41.55;20.08;;;11.20;99.90;;;11.51;100.00;100315.66;5114781;28;20047;-68
2021/12/24 00:40:31;;;;;;;38.85;19.98;;;11.30;99.90;;;11.47;100.00;100310.44;5096545;28;20047;-68
2021/12/24 00:43:01;;;;;;;43.47;21.10;;;11.30;99.90;;;11.43;100.00;100303.44;5114969;28;20063;-68
2021/12/24 00:45:32;;;;;;;43.80;20.85;;;11.20;99.90;;;11.47;100.00;100319.25;5096469;28;20044;-68
2021/12/24 00:48:02;;;;;;;43.33;20.02;;;11.20;99.90;;;11.53;100.00;100313.88;5114765;28;20043;-70
2021/12/24 00:50:48;;;;;;;43.10;19.42;;;11.30;99.90;;;11.53;100.00;100326.22;5096537;28;20044;-67
2021/12/24 00:56:07;;;;;;;43.05;18.33;;;11.40;99.90;;;11.57;100.00;100320.88;5115013;28;20428;-68
2021/12/24 00:58:37;;;;;;;46.35;18.75;;;11.40;99.90;;;11.60;100.00;100326.09;5114869;28;20044;-68
2021/12/24 01:01:07;;;;;;;44.85;17.52;;;11.40;99.90;;;11.53;100.00;100319.16;5096372;28;20071;-68
2021/12/24 01:03:36;;;;;;;41.38;16.40;;;11.30;99.90;;;11.64;100.00;100314.53;5096222;28;20047;-67
2021/12/24 01:06:06;;;;;;;39.05;16.73;;;11.40;99.90;;;11.53;100.00;100324.47;5114753;28;20043;-68
2021/12/24 01:08:35;;;;;;;45.88;18.38;;;11.40;99.90;;;11.53;100.00;100321.81;5114705;28;20048;-67
2021/12/24 01:11:08;;;;;;;47.85;17.98;;;11.30;99.90;;;11.43;100.00;100319.34;5095973;28;20047;-68
2021/12/24 01:13:37;;;;;;;43.20;17.92;;;11.30;99.90;;;11.52;100.00;100320.03;5095809;28;20093;-68
2021/12/24 01:16:14;;;;;;;45.58;17.35;;;11.30;99.90;;;11.55;100.00;100322.66;5114534;28;20131;-67
2021/12/24 01:18:51;;;;;;;48.22;17.67;;;11.30;99.90;;;11.59;100.00;100324.31;5096007;28;20043;-67
2021/12/24 01:21:35;;;;;;;42.97;17.75;;;11.40;99.90;;;11.63;100.00;100328.66;5095648;28;20139;-67
2021/12/24 01:24:08;;;;;;;35.40;15.98;;;11.40;99.90;;;11.66;100.00;100328.66;5114034;28;20048;-68
2021/12/24 01:26:44;;;;;;;37.40;16.83;;;11.50;99.90;;;11.54;100.00;100322.66;5095849;28;20557;-67
2021/12/24 01:29:42;;;;;;;35.30;16.08;;;11.40;99.90;;;11.57;100.00;100319.97;5095865;28;20047;-67
2021/12/24 01:37:57;;;;;;;37.40;16.42;;;11.50;99.90;;;11.67;100.00;100314.50;5113944;28;20066;-68
2021/12/24 01:40:40;;;;;;;44.38;16.48;;;11.50;99.90;;;11.65;100.00;100323.38;5095417;28;20139;-67
2021/12/24 01:43:07;;;;;;;;;;;11.50;99.90;;;11.74;100.00;100318.81;5095892;28;20134;-68
2021/12/24 01:45:37;;;;;;;29.88;15.65;;;11.60;99.90;;;11.73;100.00;100319.69;5113416;28;20356;-68
2021/12/24 01:48:09;;;;;;;36.72;15.88;;;11.60;99.90;;;11.75;100.00;100309.06;5095363;28;20097;-68
2021/12/24 01:50:42;;;;;;;30.83;16.23;;;11.60;99.90;;;11.74;100.00;100310.88;5095576;28;20051;-67
2021/12/24 01:53:15;;;;;;;35.20;15.07;;;11.50;99.90;;;11.76;100.00;100314.38;5095040;28;20051;-68
2021/12/24 01:55:48;;;;;;;38.38;14.85;;;11.60;99.90;;;11.71;100.00;100316.19;5094899;28;20055;-68
2021/12/24 01:58:19;;;;;;;;;;;11.60;99.90;;;11.53;100.00;100292.69;5095485;28;20362;-69
2021/12/24 02:00:51;;;;;;;30.08;13.55;;;11.60;99.90;;;11.68;100.00;100326.88;5094996;28;20022;-68
2021/12/24 02:03:20;;;;;;;23.05;13.07;;;11.50;99.90;;;11.54;100.00;100298.81;5113354;28;20385;-68
2021/12/24 02:05:50;;;;;;;25.75;12.57;;;11.60;99.90;;;11.76;100.00;100332.91;5113276;28;20089;-68
2021/12/24 02:08:20;;;;;;;32.28;14.20;;;11.60;99.90;;;11.75;100.00;100327.63;5094718;28;20135;-68
2021/12/24 02:10:51;;;;;;;35.05;14.13;;;11.60;99.90;;;11.78;100.00;100333.75;5094837;28;20043;-68
2021/12/24 02:13:22;;;;;;;34.35;14.15;;;11.60;99.90;;;11.84;100.00;100338.06;5094683;28;20094;-68
2021/12/24 02:16:06;;;;;;;34.63;15.55;;;11.60;99.90;;;11.85;100.00;100338.91;5094568;28;20097;-68
2021/12/24 02:29:55;;;;;;;35.42;13.13;;;11.60;99.90;;;11.70;99.67;100324.19;5094572;28;20174;-68
2021/12/24 02:32:23;;;;;;;23.23;10.98;;;11.50;99.90;;;11.60;99.38;100327.84;5094492;28;20439;-68
2021/12/24 02:34:52;;;;;;;26.77;11.82;;;11.50;99.90;;;11.63;99.28;100338.41;5112552;28;20534;-70
2021/12/24 02:37:22;;;;;;;25.67;11.65;;;11.40;99.90;;;11.60;99.37;100323.44;5094378;28;20043;-68
2021/12/24 02:39:50;;;;;;;21.17;11.03;;;11.50;99.90;;;11.57;99.60;100331.47;5112461;28;20097;-68
2021/12/24 02:42:22;;;;;;;22.42;11.77;;;11.40;99.90;;;11.65;99.45;100320.72;5093993;28;20461;-68
2021/12/24 02:44:52;;;;;;;27.80;11.70;;;11.40;99.90;;;10.93;99.77;100203.72;5112758;28;20370;-68
2021/12/24 02:47:43;;;;;;;29.20;13.13;;;11.50;99.90;;;11.57;99.62;100312.91;5094628;28;20054;-68
2021/12/24 02:55:56;;;;;;;25.67;12.45;;;11.40;99.90;;;11.61;99.87;100321.69;5103971;28;20055;-68
2021/12/24 02:58:25;;;;;;;24.05;11.98;;;11.40;99.90;;;11.68;99.47;100329.53;5112409;28;20047;-68
2021/12/24 03:00:54;;;;;;;30.15;12.77;;;11.50;99.90;;;11.63;99.51;100325.19;5093684;28;20040;-68
2021/12/24 03:03:22;;;;;;;27.60;12.50;;;11.40;99.90;;;11.69;99.51;100331.25;5094010;28;20404;-68
2021/12/24 03:05:52;;;;;;;24.10;12.02;;;11.50;99.90;;;11.68;99.47;100328.63;5094041;28;20051;-68
2021/12/24 03:08:21;;;;;;;26.55;11.35;;;11.50;99.90;;;11.68;99.08;100324.22;5093982;28;20532;-69
2021/12/24 03:10:53;;;;;;;29.67;12.35;;;11.50;99.90;;;11.56;99.15;100319.09;5112370;28;20051;-69
2021/12/24 03:13:22;;;;;;;30.98;11.38;;;11.50;99.90;;;11.59;99.55;100326.97;5112166;28;20490;-68
2021/12/24 03:15:53;;;;;;;26.67;12.57;;;11.50;99.90;;;11.59;99.54;100321.69;5093757;28;20138;-69
2021/12/24 03:18:25;;;;;;;;;;;11.40;99.90;;;11.58;99.48;100311.13;5094148;28;20479;-69
2021/12/24 03:21:03;;;;;;;30.52;10.70;;;11.50;99.90;;;11.64;99.25;100319.84;5093786;28;19919;-68
2021/12/24 03:23:40;;;;;;;29.17;11.88;;;11.50;99.90;;;11.50;99.57;100326.25;5093705;28;20044;-68
2021/12/24 03:26:12;;;;;;;28.02;11.00;;;11.40;99.90;;;11.43;99.33;100309.63;5112080;28;20052;-68
2021/12/24 03:28:42;;;;;;;29.25;10.43;;;11.40;99.90;;;11.51;99.31;100325.38;5093696;28;20039;-68
2021/12/24 03:31:10;;;;;;;35.80;11.70;;;11.40;99.90;;;11.54;99.30;100320.00;5111998;28;20131;-68
2021/12/24 03:33:39;;;;;;;35.03;11.60;;;11.40;99.90;;;11.55;99.04;100314.72;5111978;28;20067;-68
2021/12/24 03:36:09;;;;;;;33.38;11.50;;;11.40;99.90;;;11.58;98.91;100322.59;5093593;28;20549;-68
2021/12/24 03:38:42;;;;;;;26.05;11.30;;;11.50;99.90;;;11.65;98.77;100324.25;5093606;28;20044;-68
2021/12/24 03:41:10;;;;;;;31.73;11.80;;;11.50;99.90;;;11.60;98.66;100327.84;5093548;28;20446;-68
2021/12/24 03:43:39;;;;;;;31.38;11.65;;;11.40;99.90;;;11.71;98.57;100321.50;5093576;28;20090;-68
2021/12/24 03:46:11;;;;;;;28.15;11.38;;;11.50;99.90;;;11.75;98.25;100336.44;5093498;28;20066;-68
2021/12/24 03:48:47;;;;;;;37.08;11.90;;;11.60;99.90;;;11.67;98.31;100321.59;5111725;28;20321;-69
2021/12/24 03:51:32;;;;;;;36.35;11.70;;;11.50;99.90;;;11.72;98.11;100317.09;5093560;28;20040;-68
2021/12/24 03:56:49;;;;;;;38.60;11.93;;;11.50;99.90;;;11.65;97.95;100308.38;5097494;28;20052;-68
2021/12/24 03:59:41;;;;;;;39.05;10.98;;;11.50;99.90;;;11.58;97.96;100305.81;5115362;28;20043;-68
2021/12/24 04:02:46;;;;;;;35.35;11.07;;;11.50;99.90;;;11.11;97.98;100208.69;5115819;28;20117;-68
2021/12/24 04:05:40;;;;;;;33.75;11.20;;;11.50;99.90;;;11.67;97.48;100316.31;5115224;28;20055;-69
2021/12/24 04:08:28;;;;;;;35.38;10.77;;;11.50;99.90;;;11.65;97.21;100321.59;5115470;28;20066;-68
2021/12/24 04:11:15;;;;;;;38.65;11.27;;;11.50;99.90;;;11.60;97.20;100323.44;5097397;28;20087;-68
2021/12/24 04:13:45;;;;;;;30.00;10.63;;;11.40;99.90;;;11.67;97.04;100327.75;5097099;28;20039;-68
2021/12/24 04:16:15;;;;;;;31.77;9.85;;;11.40;99.90;;;11.70;96.67;100335.66;5096965;28;20043;-68
2021/12/24 04:19:00;;;;;;;37.90;10.65;;;11.50;99.90;;;11.67;96.42;100327.75;5097168;28;20051;-68
2021/12/24 04:27:03;;;;;;;32.55;10.63;;;11.50;99.90;;;10.93;96.20;100213.41;5115412;28;20055;-70
2021/12/24 04:29:32;;;;;;;33.15;9.93;;;11.40;99.90;;;11.50;96.09;100318.31;5097399;28;20043;-70
2021/12/24 04:32:10;;;;;;;37.13;11.23;;;11.40;99.90;;;11.47;96.66;100332.50;5096709;28;20043;-68
2021/12/24 04:35:04;;;;;;;31.63;10.23;;;11.30;99.90;;;11.46;96.77;100328.09;5096801;28;20040;-68
2021/12/24 04:51:22;;;;;;;39.03;10.43;;;11.30;99.90;;;11.53;96.27;100329.75;5096418;28;20101;-68
2021/12/24 05:02:49;;;;;;;36.97;10.23;;;11.30;99.90;;;11.44;96.61;100319.28;5096347;28;20134;-68
2021/12/24 05:05:22;;;;;;;38.28;10.13;;;11.30;99.90;;;11.44;96.56;100321.94;5096012;28;20515;-68
2021/12/24 05:08:16;;;;;;;43.42;10.98;;;11.30;99.90;;;11.36;96.78;100300.00;5114489;28;20143;-68
2021/12/24 05:10:44;;;;;;;40.97;10.43;;;11.30;99.90;;;11.47;96.26;100319.25;5114403;28;20447;-68
2021/12/24 05:13:17;;;;;;;41.38;9.98;;;11.30;99.90;;;11.54;96.37;100322.66;5114701;28;20040;-68
2021/12/24 05:16:36;;;;;;;38.30;9.15;;;11.30;99.90;;;10.97;96.15;100245.09;5095802;28;20047;-68
2021/12/24 05:22:43;;;;;;;37.05;9.50;;;11.30;99.90;;;11.26;96.59;100303.75;5095813;28;20383;-68
2021/12/24 05:25:15;;;;;;;41.60;9.82;;;11.20;99.90;;;11.42;96.51;100326.38;5095889;28;20486;-68
2021/12/24 05:27:43;;;;;;;35.83;9.23;;;11.20;99.90;;;11.44;96.49;100331.69;5095735;28;20047;-68
2021/12/24 05:30:13;;;;;;;35.20;9.82;;;11.20;99.90;;;11.44;96.42;100334.34;5095629;28;20488;-68
2021/12/24 05:32:43;;;;;;;46.63;9.82;;;11.20;99.90;;;11.46;96.04;100337.81;5114152;28;20047;-68
2021/12/24 05:35:12;;;;;;;39.45;9.90;;;11.20;99.90;;;11.51;95.74;100333.31;5095749;28;20035;-68
2021/12/24 05:37:40;;;;;;;38.38;9.02;;;11.30;99.90;;;11.36;95.71;100333.59;5113653;28;20047;-68
2021/12/24 05:40:10;;;;;;;35.15;8.45;;;11.20;99.90;;;11.32;96.13;100338.06;5095265;28;20044;-69
2021/12/24 05:42:39;;;;;;;35.95;9.07;;;11.10;99.90;;;11.37;96.03;100338.84;5095553;28;20052;-69
2021/12/24 05:45:10;;;;;;;28.30;9.10;;;11.20;99.90;;;11.24;96.08;100329.34;5095800;28;20031;-68
2021/12/24 05:47:59;;;;;;;30.92;9.50;;;11.10;99.90;;;11.30;96.13;100337.22;5113933;28;20101;-69
2021/12/24 05:50:28;;;;;;;;;;;11.10;99.90;;;11.20;96.09;100325.00;5095742;28;20625;-68
2021/12/24 05:52:56;;;;;;;30.73;9.48;;;11.00;99.90;;;11.14;96.09;100330.41;5113718;28;20030;-68
2021/12/24 05:55:42;;;;;;;41.58;10.30;;;10.90;99.90;;;10.98;96.54;100323.56;5095257;28;20054;-68
2021/12/24 05:58:19;;;;;;;39.17;10.25;;;10.80;99.90;;;11.05;96.70;100317.31;5095262;28;20051;-68
2021/12/24 06:00:48;;;;;;;41.25;10.50;;;10.80;99.90;;;10.89;96.98;100323.72;5095220;28;20040;-68
2021/12/24 06:03:19;;;;;;;43.28;11.05;;;10.70;99.90;;;10.93;97.33;100324.53;5095005;28;20508;-68
2021/12/24 06:05:48;;;;;;;41.38;10.57;;;10.70;99.90;;;10.81;97.32;100301.78;5113579;28;20039;-68
2021/12/24 06:08:16;;;;;;;32.63;9.77;;;10.60;99.90;;;10.74;98.05;100323.94;5113391;28;20398;-68
2021/12/24 06:10:45;;;;;;;32.35;9.35;;;10.50;99.90;;;10.87;97.94;100328.16;5112958;28;20084;-68
2021/12/24 06:13:13;;;;;;;41.05;10.40;;;10.60;99.90;;;10.81;97.57;100326.47;5113317;28;20048;-68
2021/12/24 06:15:44;;;;;;;33.05;10.45;;;10.60;99.90;;;10.75;97.93;100321.28;5113145;28;20056;-69
2021/12/24 06:18:22;;;;;;;39.15;11.05;;;10.50;99.90;;;10.72;97.87;100323.09;5112106;28;20048;-68
2021/12/24 06:20:54;;;;;;;31.33;9.95;;;10.50;99.90;;;10.76;97.75;100327.44;5112752;28;20126;-68
2021/12/24 06:23:24;;;;;;;33.50;10.10;;;10.50;99.90;;;10.75;97.55;100323.03;5112990;28;20043;-69
2021/12/24 06:25:54;;;;;;;;;;;10.50;99.90;;;10.72;97.60;100333.66;5113337;28;20156;-69
2021/12/24 06:28:24;;;;;;;36.72;9.45;;;10.50;99.90;;;10.78;97.69;100334.44;5112785;28;20262;-68
2021/12/24 06:30:52;;;;;;;35.28;8.95;;;10.50;99.90;;;10.80;97.38;100313.28;5112914;28;20039;-68
2021/12/24 06:33:22;;;;;;;40.97;9.68;;;10.60;99.90;;;10.93;96.91;100343.94;5112316;28;20044;-68
2021/12/24 06:35:54;;;;;;;34.45;10.18;;;10.70;99.90;;;10.93;96.72;100351.00;5112231;28;20065;-68
2021/12/24 06:38:23;;;;;;;30.92;9.10;;;10.70;99.90;;;11.02;96.57;100351.75;5112588;28;20130;-69
2021/12/24 06:40:51;;;;;;;33.38;9.90;;;10.80;99.90;;;10.95;96.55;100338.63;5112282;28;20157;-68
2021/12/24 06:43:20;;;;;;;33.60;9.05;;;10.70;99.90;;;10.86;96.67;100326.38;5112597;28;20048;-69
2021/12/24 06:45:49;;;;;;;38.13;9.57;;;10.70;99.90;;;10.87;96.98;100344.91;5112536;28;20147;-68
2021/12/24 06:48:19;;;;;;;39.30;9.38;;;10.60;99.90;;;10.89;96.82;100326.38;5112494;28;20048;-68
2021/12/24 06:50:48;;;;;;;27.98;8.55;;;10.60;99.90;;;10.97;96.59;100324.50;5112247;28;20039;-69
2021/12/24 06:53:18;;;;;;;29.35;8.23;;;10.70;99.90;;;10.94;96.24;100327.16;5112432;28;20089;-68
2021/12/24 06:55:47;;;;;;;;;;;10.70;99.90;;;11.10;95.86;100336.63;5094588;28;20039;-69
2021/12/24 06:58:16;;;;;;;33.50;8.70;;;10.90;99.90;;;11.06;95.34;100340.22;5094184;28;19928;-69
2021/12/24 07:00:45;;;;;;;34.70;9.13;;;10.90;99.90;;;11.10;95.44;100338.41;5094038;28;20618;-68
2021/12/24 07:03:14;;;;;;;32.45;8.45;;;10.90;99.90;;;11.11;95.22;100330.41;5093969;28;20040;-69
2021/12/24 07:05:42;;;;;;;29.75;8.15;;;10.90;99.90;;;11.19;94.86;100335.63;5094057;28;20067;-69
2021/12/24 07:08:11;;;;;;;30.80;8.02;;;11.00;99.90;;;11.14;94.90;100335.69;5112164;28;20119;-68
2021/12/24 07:10:41;;;;;;;33.40;8.38;;;10.90;99.90;;;11.16;94.68;100325.94;5112318;28;20047;-69
2021/12/24 07:13:09;;;;;;;31.60;7.67;;;10.90;99.90;;;11.17;94.42;100327.69;5093995;28;20344;-68
2021/12/24 07:15:37;;;;;;;30.38;7.80;;;11.00;99.90;;;11.14;94.29;100327.75;5112382;28;20410;-69
2021/12/24 07:18:06;;;;;;;29.20;7.72;;;11.00;99.90;;;11.11;94.10;100322.47;5112115;28;20051;-68
2021/12/24 07:20:34;;;;;;;28.52;7.32;;;10.90;99.90;;;11.18;94.75;100324.16;5112110;28;20479;-68
2021/12/24 07:23:03;;;;;;;34.50;7.88;;;10.90;99.90;;;11.12;94.42;100329.53;5112420;28;20044;-70
2021/12/24 07:25:32;;;;;;;30.77;8.32;;;10.90;99.90;;;11.19;94.68;100349.72;5112003;28;20032;-68
2021/12/24 07:28:02;;;;;;;29.73;8.15;;;11.00;99.90;;;11.19;94.32;100327.69;5093538;28;20051;-69
2021/12/24 07:30:31;;;;;;;22.17;6.70;;;11.00;99.90;;;11.18;94.13;100331.22;5116288;28;20467;-69
2021/12/24 07:33:02;;;;;;;30.83;7.57;;;11.00;99.90;;;11.20;94.36;100334.72;5116217;28;20043;-68
2021/12/24 07:35:30;;;;;;;29.95;7.60;;;11.00;99.90;;;11.21;94.48;100334.69;5116825;28;20273;-69
2021/12/24 07:37:59;;;;;;;31.27;8.10;;;11.00;99.90;;;11.24;94.40;100337.31;5116421;28;20200;-71
2021/12/24 07:40:27;;;;;;;29.80;7.35;;;11.10;99.90;;;11.22;94.15;100336.44;5115915;28;20048;-68
2021/12/24 07:42:56;;;;;;;26.60;7.70;;;11.00;99.90;;;11.14;94.22;100327.75;5116078;28;20040;-68
2021/12/24 07:45:26;;;;;;;32.47;8.15;;;11.00;99.90;;;11.21;94.31;100323.22;5115961;28;20545;-68
2021/12/24 07:48:07;;;;;;;34.58;7.80;;;11.00;99.90;;;11.28;94.32;100322.22;5097577;28;20548;-69
2021/12/24 07:53:23;;;;;;;32.17;8.30;;;11.00;99.90;;;11.22;93.86;100323.22;5115899;28;20048;-70
2021/12/24 07:55:55;;;;;;;37.37;8.37;;;11.00;99.90;;;11.27;93.94;100320.47;5115196;28;20127;-73
2021/12/24 07:58:24;;;;;;;27.17;7.35;;;11.10;99.90;;;11.33;93.47;100326.56;5115769;28;20075;-73
2021/12/24 08:00:53;;;;;;;33.00;7.63;;;11.10;99.90;;;11.33;93.35;100326.56;5115542;28;20040;-71
2021/12/24 08:03:26;;;;;;;31.98;7.13;;;11.10;99.90;;;11.25;93.17;100332.84;5115066;28;20046;-72
2021/12/24 08:05:55;;;;;;;35.10;8.38;;;11.00;99.90;;;11.20;93.75;100340.00;5097115;28;20039;-73
2021/12/24 08:08:23;;;;;;;34.67;8.15;;;11.00;99.90;;;11.17;93.76;100337.41;5096754;28;20048;-73
2021/12/24 08:10:52;;;;;;;39.60;8.07;;;11.00;99.90;;;11.12;93.93;100341.88;5114957;28;20097;-76
2021/12/24 08:13:20;;;;;;;32.47;7.53;;;10.90;99.90;;;11.05;94.56;100340.25;5115104;28;20138;-77
2021/12/24 08:15:51;;;;;;;30.33;8.10;;;10.80;99.90;;;11.13;94.40;100335.72;5115596;28;20059;-75
2021/12/24 08:18:20;;;;;;;;;;;10.90;99.90;;;11.19;94.30;100343.56;5115967;28;20047;-75
2021/12/24 08:20:49;;;;;;;32.67;7.07;;;10.90;99.90;;;11.15;94.17;100345.34;5115374;28;19919;-75
2021/12/24 08:23:17;;;;;;;25.25;7.38;;;10.90;99.90;;;11.15;94.26;100342.72;5115748;28;20043;-76
2021/12/24 08:25:46;;;;;;;25.70;7.18;;;10.90;99.90;;;11.16;93.92;100346.25;5115618;28;20032;-76
2021/12/24 08:28:14;;;;;;;36.72;8.10;;;10.90;99.90;;;11.19;94.18;100336.47;5097680;28;20070;-77
2021/12/24 08:30:43;;;;;;;30.55;7.25;;;10.90;99.90;;;11.11;94.41;100330.41;5116326;28;20154;-71
2021/12/24 08:33:15;;;;;;;28.60;8.23;;;10.90;99.90;;;11.09;94.72;100323.44;5116247;28;20518;-76
2021/12/24 08:35:45;;;;;;;34.00;8.07;;;10.80;99.90;;;11.10;95.18;100339.28;5115811;28;20043;-76
2021/12/24 08:38:14;;;;;;;27.60;7.07;;;10.80;99.90;;;11.11;95.08;100338.34;5115254;28;20370;-73
2021/12/24 08:40:42;;;;;;;28.20;7.60;;;10.80;99.90;;;11.13;95.00;100335.72;5114036;28;20040;-76
2021/12/24 08:43:11;;;;;;;27.70;7.40;;;10.90;99.90;;;11.16;95.13;100339.19;5114970;28;20039;-74
2021/12/24 08:45:39;;;;;;;32.25;8.27;;;10.90;99.90;;;11.24;94.74;100339.06;5114672;28;20028;-73
2021/12/24 08:48:08;;;;;;;31.02;8.15;;;11.00;99.90;;;10.60;94.35;100218.34;5114657;28;20051;-76
2021/12/24 08:50:36;;;;;;;32.75;8.18;;;11.00;99.90;;;10.51;94.21;100221.09;5096402;28;20477;-74
2021/12/24 08:53:07;;;;;;;32.03;8.88;;;10.90;99.90;;;11.28;94.28;100348.72;5096323;28;20084;-67
2021/12/24 08:55:35;;;;;;;42.15;9.20;;;10.90;99.90;;;11.10;94.57;100333.97;5114292;28;20445;-69
2021/12/24 08:58:05;;;;;;;30.50;8.68;;;10.90;99.90;;;11.28;94.48;100349.59;5113969;28;20493;-70
2021/12/24 09:00:36;;;;;;;34.63;8.07;;;11.00;99.90;;;11.00;94.77;100318.25;5114097;28;20382;-69
2021/12/24 09:03:05;;;;;;;33.22;8.02;;;10.90;99.90;;;11.12;94.95;100363.94;5113903;28;20035;-70
2021/12/24 09:05:34;;;;;;;37.33;9.90;;;10.90;99.90;;;11.05;95.01;100341.13;5113805;28;20424;-71
2021/12/24 09:08:03;;;;;;;42.35;8.82;;;10.80;99.90;;;10.93;95.50;100351.88;5095470;28;20078;-71
2021/12/24 09:10:32;;;;;;;36.88;9.30;;;10.70;99.90;;;10.90;95.99;100341.31;5095626;28;20137;-72
2021/12/24 09:13:01;;;;;;;34.17;7.60;;;10.70;99.90;;;10.94;96.24;100350.13;5095531;28;20060;-73
2021/12/24 09:15:31;;;;;;;30.83;7.93;;;10.60;99.90;;;10.94;96.21;100343.03;5114031;28;20336;-73
2021/12/24 09:18:02;;;;;;;34.13;7.78;;;10.70;99.90;;;10.93;96.20;100346.59;5114287;28;20066;-70
2021/12/24 09:20:38;;;;;;;32.25;9.05;;;10.70;99.90;;;11.04;96.29;100349.94;5113528;28;20097;-72
2021/12/24 09:23:09;;;;;;;33.53;9.05;;;10.70;99.90;;;11.01;96.23;100342.06;5113621;28;20119;-75
2021/12/24 09:25:40;;;;;;;;;;;10.70;99.90;;;10.98;96.23;100334.16;5113991;28;20043;-70
2021/12/24 09:28:08;;;;;;;;;;;10.70;99.90;;;10.93;96.30;100330.72;5114383;28;20006;-70
2021/12/24 09:30:37;;;;;;;33.03;8.93;;;10.70;99.90;;;10.93;96.53;100333.38;5113397;28;19979;-71
2021/12/24 09:33:06;;;;;;;39.55;9.23;;;10.70;99.90;;;10.92;96.60;100341.34;5113062;28;20137;-68
2021/12/24 09:35:35;;;;;;;31.35;8.50;;;10.60;99.90;;;10.94;96.56;100337.75;5113629;28;20077;-69
2021/12/24 09:38:04;;;;;;;38.30;9.27;;;10.60;99.90;;;10.96;96.35;100340.34;5113078;28;20142;-69
2021/12/24 09:40:35;;;;;;;39.72;9.68;;;10.70;99.90;;;10.85;96.76;100340.53;5113467;28;20094;-69
2021/12/24 09:43:05;;;;;;;31.00;9.60;;;10.60;99.90;;;10.97;96.60;100332.44;5113225;28;20050;-68
2021/12/24 09:45:33;;;;;;;36.70;9.90;;;10.70;99.90;;;10.94;96.73;100342.19;5113343;28;20108;-71
2021/12/24 09:48:02;;;;;;;37.15;10.30;;;10.70;99.90;;;10.95;96.28;100339.50;5095032;28;20408;-69
2021/12/24 09:50:31;;;;;;;36.03;10.90;;;10.70;99.90;;;10.89;96.67;100335.19;5113083;28;20058;-68
2021/12/24 09:52:59;;;;;;;37.72;9.00;;;10.60;99.90;;;10.95;96.40;100336.88;5112203;28;20046;-68
2021/12/24 09:55:30;;;;;;;28.35;9.13;;;10.70;99.90;;;10.93;96.18;100335.13;5113317;28;20111;-68
2021/12/24 09:57:59;;;;;;;32.20;10.07;;;10.70;99.90;;;10.90;96.01;100336.03;5113036;28;20047;-68
2021/12/24 10:00:30;;;;;;;39.60;9.77;;;10.70;99.90;;;10.82;95.99;100300.88;5112799;28;20035;-71
2021/12/24 10:03:00;;;;;;;34.45;8.70;;;10.70;99.90;;;11.00;95.75;100340.31;5112978;28;20043;-68
2021/12/24 10:05:35;;;;;;;37.47;9.20;;;10.80;99.90;;;11.02;95.46;100349.09;5113024;28;20096;-69
2021/12/24 10:08:12;;;;;;;37.10;9.50;;;10.80;99.90;;;11.12;95.25;100342.78;5113426;28;20043;-68
2021/12/24 10:10:43;;;;;;;35.28;8.90;;;10.90;99.90;;;11.12;95.25;100349.84;5094514;28;20047;-69
2021/12/24 10:13:34;;;;;;;29.63;8.75;;;10.90;99.90;;;11.05;95.02;100343.78;5113058;28;20043;-70
2021/12/24 10:16:06;;;;;;;36.03;9.18;;;10.80;99.90;;;11.00;95.32;100350.88;5072062;28;20466;-71
2021/12/24 10:18:40;;;;;;;34.10;9.57;;;10.80;99.90;;;11.00;95.20;100342.06;5070790;28;20143;-72
2021/12/24 10:21:15;;;;;;;27.15;9.15;;;10.80;99.90;;;11.08;95.28;100350.78;5070842;28;20080;-73
2021/12/24 10:23:53;;;;;;;35.80;9.38;;;10.80;99.90;;;11.01;95.13;100341.19;5071922;28;20048;-70
2021/12/24 10:26:26;;;;;;;42.08;9.65;;;10.80;99.90;;;10.90;95.20;100320.16;5072031;28;20084;-72
2021/12/24 10:28:59;;;;;;;28.98;8.70;;;10.80;99.90;;;11.00;95.48;100345.59;5072125;28;20155;-73
2021/12/24 10:31:33;;;;;;;36.13;8.82;;;10.70;99.90;;;11.08;95.18;100341.06;5070666;28;20106;-70
2021/12/24 10:34:18;;;;;;;36.05;8.77;;;10.80;99.90;;;11.09;95.31;100340.16;5071851;28;20040;-68
2021/12/24 10:37:10;;;;;;;27.90;8.13;;;10.90;99.90;;;11.03;94.90;100319.09;5071583;28;20040;-69
2021/12/24 10:39:47;;;;;;;29.33;8.93;;;10.90;99.90;;;11.09;95.20;100332.22;5070628;28;20048;-68
2021/12/24 10:42:21;;;;;;;32.75;8.88;;;10.80;99.90;;;11.14;95.08;100327.75;5072051;28;20098;-69
2021/12/24 10:44:52;;;;;;;40.75;8.95;;;10.90;99.90;;;11.25;94.84;100332.84;5071355;28;20545;-70
2021/12/24 10:47:26;;;;;;;35.03;8.68;;;11.00;99.90;;;11.29;94.60;100330.16;5071365;28;20463;-69
2021/12/24 10:50:11;;;;;;;33.15;8.80;;;11.00;99.90;;;11.24;94.21;100329.34;5071793;28;20070;-70
2021/12/24 10:55:38;;;;;;;27.30;8.65;;;11.10;99.90;;;11.44;93.36;100334.34;5071552;28;20072;-71
2021/12/24 10:58:18;;;;;;;27.80;8.52;;;11.20;99.90;;;11.52;92.87;100327.09;5071194;28;20040;-73
2021/12/24 11:00:50;;;;;;;31.40;9.18;;;11.20;99.90;;;11.38;92.68;100324.69;5071728;28;20442;-69
2021/12/24 11:03:24;;;;;;;25.33;8.30;;;11.20;99.90;;;11.37;92.68;100330.91;5070757;28;20469;-68
2021/12/24 11:05:55;;;;;;;25.60;8.68;;;11.20;99.90;;;11.41;92.56;100324.66;5069946;28;20096;-67
2021/12/24 11:08:27;;;;;;;31.55;8.20;;;11.20;99.90;;;11.28;92.52;100315.19;5071139;28;20097;-68
2021/12/24 11:11:00;;;;;;;31.27;8.73;;;11.10;99.90;;;11.23;92.93;100335.53;5071092;28;20512;-68
2021/12/24 11:13:39;;;;;;;36.70;8.95;;;11.00;99.90;;;11.30;92.83;100325.72;5069419;28;20080;-67
2021/12/24 11:16:11;;;;;;;29.20;8.50;;;11.10;99.90;;;11.32;92.60;100323.94;5111799;28;20133;-66
2021/12/24 11:18:46;;;;;;;28.65;7.40;;;11.10;99.90;;;11.27;92.79;100331.94;5093270;28;20052;-68
2021/12/24 11:21:23;;;;;;;35.63;8.60;;;11.10;99.90;;;11.29;92.88;100330.16;5093361;28;20066;-69
2021/12/24 11:23:52;;;;;;;32.63;8.27;;;11.10;99.90;;;11.36;92.95;100323.00;5111473;28;20055;-68
2021/12/24 11:26:25;;;;;;;36.78;8.02;;;11.10;99.90;;;11.32;93.09;100324.81;5112270;28;20474;-68
2021/12/24 11:28:54;;;;;;;33.58;8.23;;;11.20;99.90;;;11.23;93.20;100329.34;5111355;28;20413;-68
2021/12/24 11:31:26;;;;;;;28.98;8.13;;;11.10;99.90;;;11.41;92.49;100326.44;5093509;28;20062;-68
2021/12/24 11:33:58;;;;;;;32.55;7.97;;;11.20;99.90;;;11.28;92.23;100322.22;5093443;28;20146;-67
2021/12/24 11:36:29;;;;;;;28.10;7.60;;;11.20;99.90;;;11.23;92.66;100322.31;5111722;28;20438;-69
2021/12/24 11:39:00;;;;;;;30.25;7.22;;;11.10;99.90;;;11.18;93.24;100324.16;5111515;28;20495;-68
2021/12/24 11:41:31;;;;;;;32.25;8.20;;;11.00;99.90;;;11.28;93.40;100323.13;5111718;28;20147;-69
2021/12/24 11:44:05;;;;;;;24.38;6.88;;;11.10;99.90;;;11.33;93.41;100328.31;5093632;28;20485;-68
2021/12/24 11:46:37;;;;;;;24.42;8.02;;;11.10;99.90;;;11.34;92.95;100319.50;5112427;28;20112;-68